SBOSBO ELS / FAEL
Speedbird OnlineSpeedbird Online ELS / FAEL

Ben Schoeman Airport
09:29 19°C

Location East London, South Africa
Latitude: -33.0355987549
Longitude: 27.825899124099998
Local Time 09:29 on 18 Jul 2024
UTC +2 hours (Africa/Johannesburg)
Currency £1 equals ZAR 23.64
METAR FAEL 180700Z VRB01KT CAVOK 19/13 Q1013
TAF TAF FAEL 180600Z 1807/1818 VRB02KT CAVOK TX22/1811Z TN14/1818Z BECMG 1807/1809 21012KT PROB30 TEMPO 1811/1816 21015G25KT
Weather As Of 18 Jul 2024 09:29
Description Clear sky
Wind 2 km/h from North (0°)
Cloud Cover 0%
Precipitation Rain: none, Snow: none
Sunrise 07:08
Sunset 17:21
Web Airport Website | Wikipedia
Codes IATA: ELS
ICAO: FAEL
Altitude 133 Meter / 435 Feet
Distance 9,783 KM / 6,079 Miles
from London.
Runways
RunwayLength (m)Surface
061585Asphalt
111939Asphalt
241585Asphalt
291939Asphalt
Radio
TypeDescriptionFrequency
APPAPP120.1
ATISATIS126.45
GTEAPRON122.65
TWRTWR118.3
Live ATC



Support Speedbird Online

© 2017-2024 Speedbird Online